createdAt,value
2018-08-23T00:03:23.131Z,96752.53
2018-08-23T00:06:55.875Z,96741.53
2018-08-23T00:10:21.164Z,96735.75
2018-08-23T00:13:47.917Z,96733.43
2018-08-23T00:17:14.815Z,96728.11
2018-08-23T00:20:41.771Z,96733.06
2018-08-23T00:24:11.815Z,96731.98
2018-08-23T00:27:36.437Z,96728.22
2018-08-23T00:31:02.229Z,96731.02
2018-08-23T00:34:32.227Z,96728.14
2018-08-23T00:37:57.375Z,96731.80
2018-08-23T00:41:24.390Z,96729.95
2018-08-23T00:45:01.129Z,96735.44
2018-08-23T00:48:28.296Z,96738.09
2018-08-23T00:51:53.045Z,96732.08
2018-08-23T00:55:31.558Z,96732.13
2018-08-23T00:59:01.422Z,96726.98
2018-08-23T01:02:28.058Z,96725.56
2018-08-23T01:05:53.790Z,96737.06
2018-08-23T01:09:19.608Z,96729.22
2018-08-23T01:12:54.245Z,96727.37
2018-08-23T01:16:18.886Z,96727.82
2018-08-23T01:19:50.468Z,96730.37
2018-08-23T01:23:18.283Z,96734.92
2018-08-23T01:26:42.930Z,96728.94
2018-08-23T01:30:09.084Z,96722.00
2018-08-23T01:33:34.525Z,96724.59
2018-08-23T01:36:59.220Z,96735.36
2018-08-23T01:40:24.126Z,96744.86
2018-08-23T01:43:48.760Z,96740.99
2018-08-23T01:47:15.089Z,96739.23
2018-08-23T01:50:40.876Z,96747.68
2018-08-23T01:54:05.593Z,96743.38
2018-08-23T01:57:34.275Z,96744.38
2018-08-23T02:01:13.945Z,96734.43
2018-08-23T02:04:38.641Z,96735.25
2018-08-23T02:08:04.317Z,96727.00
2018-08-23T02:11:30.709Z,96720.98
2018-08-23T02:15:04.099Z,96713.53
2018-08-23T02:18:28.736Z,96714.41
2018-08-23T02:21:54.595Z,96709.50
2018-08-23T02:25:19.288Z,96711.10
2018-08-23T02:28:52.290Z,96710.52
2018-08-23T02:32:18.850Z,96702.39
2018-08-23T02:36:30.675Z,96690.30
2018-08-23T02:39:56.522Z,96693.32
2018-08-23T02:43:21.145Z,96690.73
2018-08-23T02:46:47.606Z,96683.52
2018-08-23T02:50:13.846Z,96677.58
2018-08-23T02:53:41.091Z,96673.68
2018-08-23T02:57:11.664Z,96670.20
2018-08-23T03:00:42.252Z,96666.05
2018-08-23T03:04:41.916Z,96668.83
2018-08-23T03:08:06.596Z,96662.59
2018-08-23T03:11:33.836Z,96657.11
2018-08-23T03:15:02.282Z,96654.29
2018-08-23T03:18:28.596Z,96661.50
2018-08-23T03:22:02.070Z,96659.23
2018-08-23T03:25:27.836Z,96663.23
2018-08-23T03:28:53.176Z,96654.73
2018-08-23T03:32:17.808Z,96656.99
2018-08-23T03:35:46.320Z,96658.16
2018-08-23T03:39:12.595Z,96646.78
2018-08-23T03:42:37.260Z,96649.92
2018-08-23T03:46:01.966Z,96645.92
2018-08-23T03:49:35.908Z,96648.47
2018-08-23T03:53:00.540Z,96648.81
2018-08-23T03:56:25.218Z,96643.11
2018-08-23T03:59:51.930Z,96643.62
2018-08-23T04:03:20.174Z,96645.82
2018-08-23T04:06:45.468Z,96645.14
2018-08-23T04:10:12.521Z,96639.43
2018-08-23T04:13:38.064Z,96639.86
2018-08-23T04:17:06.542Z,96646.75
2018-08-23T04:20:32.678Z,96646.30
2018-08-23T04:23:57.348Z,96647.25
2018-08-23T04:27:22.754Z,96644.73
2018-08-23T04:30:48.334Z,96651.36
2018-08-23T04:34:14.920Z,96651.67
2018-08-23T04:37:40.753Z,96636.62
2018-08-23T04:41:10.066Z,96654.89
2018-08-23T04:44:42.870Z,96649.46
2018-08-23T04:48:08.723Z,96650.64
2018-08-23T04:51:35.505Z,96654.23
2018-08-23T04:55:05.081Z,96655.07
2018-08-23T04:58:32.596Z,96654.27
2018-08-23T05:01:57.377Z,96658.94
2018-08-23T05:05:22.547Z,96659.63
2018-08-23T05:08:49.165Z,96663.16
2018-08-23T05:12:15.333Z,96668.25
2018-08-23T05:15:40.565Z,96662.09
2018-08-23T05:19:05.938Z,96661.28
2018-08-23T05:22:37.766Z,96660.07
2018-08-23T05:26:08.728Z,96648.03
2018-08-23T05:29:35.174Z,96645.48
2018-08-23T05:33:05.864Z,96645.55
2018-08-23T05:36:31.162Z,96648.37
2018-08-23T05:39:57.198Z,96647.20
2018-08-23T05:43:22.772Z,96645.70
2018-08-23T05:46:53.864Z,96649.81
2018-08-23T05:50:22.213Z,96658.46
2018-08-23T05:53:53.240Z,96653.38
2018-08-23T05:57:19.480Z,96652.76
2018-08-23T06:00:44.246Z,96646.03
2018-08-23T06:04:09.766Z,96650.34
2018-08-23T06:07:35.162Z,96654.11
2018-08-23T06:11:10.885Z,96651.45
2018-08-23T06:14:35.606Z,96651.41
2018-08-23T06:18:01.452Z,96652.55
2018-08-23T06:21:27.228Z,96645.39
2018-08-23T06:24:55.616Z,96649.11
2018-08-23T06:28:25.175Z,96642.74
2018-08-23T06:32:03.022Z,96645.34
2018-08-23T06:35:37.483Z,96649.35
2018-08-23T06:39:02.301Z,96650.84
2018-08-23T06:42:47.621Z,96648.74
2018-08-23T06:46:13.086Z,96650.02
2018-08-23T06:49:41.078Z,96642.09
2018-08-23T06:53:05.945Z,96645.86
2018-08-23T06:56:32.743Z,96646.53
2018-08-23T06:59:57.701Z,96642.85
2018-08-23T07:03:22.653Z,96642.57
2018-08-23T07:06:47.590Z,96635.79
2018-08-23T07:10:14.254Z,96635.09
2018-08-23T07:13:39.446Z,96640.57
2018-08-23T07:17:18.141Z,96644.59
2018-08-23T07:20:43.058Z,96637.05
2018-08-23T07:24:15.154Z,96628.51
2018-08-23T07:27:40.031Z,96632.17
2018-08-23T07:31:05.018Z,96631.64
2018-08-23T07:34:29.907Z,96629.41
2018-08-23T07:37:54.646Z,96629.38
2018-08-23T07:41:19.430Z,96634.39
2018-08-23T07:44:44.221Z,96626.52
2018-08-23T07:48:08.823Z,96633.28
2018-08-23T07:51:33.481Z,96634.87
2018-08-23T07:54:58.254Z,96636.00
2018-08-23T07:58:22.918Z,96635.69
2018-08-23T08:01:47.640Z,96637.48
2018-08-23T08:05:12.328Z,96632.13
2018-08-23T08:08:37.992Z,96639.13
2018-08-23T08:12:02.774Z,96628.31
2018-08-23T08:15:27.493Z,96628.07
2018-08-23T08:18:52.299Z,96637.27
2018-08-23T08:22:17.835Z,96639.47
2018-08-23T08:25:42.911Z,96633.09
2018-08-23T08:29:08.200Z,96640.37
2018-08-23T08:32:32.846Z,96632.77
2018-08-23T08:36:01.639Z,96631.27
2018-08-23T08:39:26.282Z,96625.48
2018-08-23T08:42:50.913Z,96628.62
2018-08-23T08:46:15.562Z,96636.42
2018-08-23T08:49:40.222Z,96625.31
2018-08-23T08:53:04.882Z,96630.77
2018-08-23T08:56:38.466Z,96634.27
2018-08-23T09:00:03.135Z,96619.83
2018-08-23T09:03:31.993Z,96627.14
2018-08-23T09:06:56.653Z,96627.64
2018-08-23T09:10:21.378Z,96625.16
2018-08-23T09:13:47.450Z,96631.77
2018-08-23T09:17:34.816Z,96624.48
2018-08-23T09:20:59.590Z,96615.19
2018-08-23T09:24:28.535Z,96617.52
2018-08-23T09:27:53.196Z,96613.72
2018-08-23T09:31:17.933Z,96614.55
2018-08-23T09:34:42.907Z,96616.52
2018-08-23T09:38:15.115Z,96615.87
2018-08-23T09:41:39.812Z,96629.25
2018-08-23T09:45:15.478Z,96617.48
2018-08-23T09:48:40.104Z,96612.88
2018-08-23T09:52:11.032Z,96619.86
2018-08-23T09:55:35.665Z,96614.20
2018-08-23T09:59:00.541Z,96612.34
2018-08-23T10:02:30.540Z,96611.48
2018-08-23T10:06:00.399Z,96613.48
2018-08-23T10:09:25.718Z,96598.61
2018-08-23T10:12:55.824Z,96606.54
2018-08-23T10:16:25.697Z,96600.50
2018-08-23T10:19:55.733Z,96601.27
2018-08-23T10:23:23.657Z,96593.89
2018-08-23T10:26:48.305Z,96602.73
2018-08-23T10:30:12.946Z,96596.43
2018-08-23T10:33:37.621Z,96591.73
2018-08-23T10:37:02.269Z,96593.33
2018-08-23T10:40:27.128Z,96580.64
2018-08-23T10:43:51.758Z,96580.68
2018-08-23T10:47:21.804Z,96573.30
2018-08-23T10:50:47.841Z,96574.44
2018-08-23T10:54:12.398Z,96567.59
2018-08-23T10:57:37.016Z,96570.73
2018-08-23T11:01:03.043Z,96558.46
2018-08-23T11:04:27.776Z,96562.87
2018-08-23T11:07:57.878Z,96558.29
2018-08-23T11:11:32.780Z,96545.03
2018-08-23T11:14:58.590Z,96548.68
2018-08-23T11:18:28.797Z,96539.23
2018-08-23T11:21:53.440Z,96530.91
2018-08-23T11:25:18.165Z,96526.58
2018-08-23T11:28:43.374Z,96518.31
2018-08-23T11:32:08.146Z,96513.72
2018-08-23T11:35:32.745Z,96501.13
2018-08-23T11:38:57.400Z,96494.98
2018-08-23T11:42:22.991Z,96481.81
2018-08-23T11:45:51.715Z,96488.14
2018-08-23T11:49:16.409Z,96481.11
2018-08-23T11:52:42.113Z,96477.23
2018-08-23T11:56:07.137Z,96475.50
2018-08-23T11:59:31.967Z,96464.86
2018-08-23T12:02:56.855Z,96460.07
2018-08-23T12:06:21.519Z,96453.45
2018-08-23T12:09:46.246Z,96430.89
2018-08-23T12:13:11.071Z,96443.17
2018-08-23T12:16:35.764Z,96433.84
2018-08-23T12:20:00.511Z,96428.20
2018-08-23T12:23:25.157Z,96427.33
2018-08-23T12:26:49.840Z,96432.58
2018-08-23T12:30:15.139Z,96418.39
2018-08-23T12:33:39.788Z,96419.25
2018-08-23T12:37:09.675Z,96414.44
2018-08-23T12:40:39.603Z,96411.22
2018-08-23T12:44:04.275Z,96409.51
2018-08-23T12:47:28.965Z,96415.72
2018-08-23T12:50:53.886Z,96406.77
2018-08-23T12:54:18.673Z,96402.70
2018-08-23T12:57:43.333Z,96399.44
2018-08-23T13:01:08.013Z,96402.48
2018-08-23T13:04:32.839Z,96402.78
2018-08-23T13:07:57.513Z,96398.53
2018-08-23T13:11:22.223Z,96386.39
2018-08-23T13:14:46.893Z,96384.29
2018-08-23T13:18:11.543Z,96368.97
2018-08-23T13:21:36.190Z,96383.00
2018-08-23T13:25:07.235Z,96382.45
2018-08-23T13:28:31.977Z,96376.89
2018-08-23T13:31:57.350Z,96389.09
2018-08-23T13:35:22.111Z,96383.48
2018-08-23T13:38:46.775Z,96369.74
2018-08-23T13:42:11.423Z,96368.74
2018-08-23T13:45:36.148Z,96389.42
2018-08-23T13:49:00.840Z,96419.34
2018-08-23T13:52:25.559Z,96420.34
2018-08-23T13:55:50.207Z,96401.26
2018-08-23T13:59:14.951Z,96380.91
2018-08-23T14:02:39.755Z,96382.76
2018-08-23T14:06:04.698Z,96392.05
2018-08-23T14:09:29.608Z,96388.25
2018-08-23T14:12:54.481Z,96389.14
2018-08-23T14:16:19.171Z,96381.72
2018-08-23T14:19:43.875Z,96372.75
2018-08-23T14:23:08.619Z,96383.88
2018-08-23T14:26:33.369Z,96369.59
2018-08-23T14:29:58.005Z,96372.67
2018-08-23T14:33:22.621Z,96366.72
2018-08-23T14:36:47.485Z,96356.63
2018-08-23T14:40:12.192Z,96363.98
2018-08-23T14:43:36.937Z,96353.42
2018-08-23T14:47:06.756Z,96343.08
2018-08-23T14:50:31.804Z,96349.93
2018-08-23T14:53:56.431Z,96356.08
2018-08-23T14:57:26.471Z,96356.35
2018-08-23T15:00:51.243Z,96365.36
2018-08-23T15:04:15.958Z,96365.86
2018-08-23T15:07:40.621Z,96365.20
2018-08-23T15:11:05.401Z,96370.92
2018-08-23T15:14:30.107Z,96364.75
2018-08-23T15:17:54.736Z,96365.73
2018-08-23T15:21:19.350Z,96357.05
2018-08-23T15:24:44.043Z,96356.45
2018-08-23T15:28:08.968Z,96347.42
2018-08-23T15:31:33.698Z,96350.28
2018-08-23T15:34:58.349Z,96348.20
2018-08-23T15:38:23.037Z,96342.45
2018-08-23T15:41:47.691Z,96345.14
2018-08-23T15:45:12.352Z,96346.86
2018-08-23T15:48:37.056Z,96345.06
2018-08-23T15:52:01.739Z,96351.70
2018-08-23T15:55:26.542Z,96351.56
2018-08-23T15:58:51.213Z,96353.40
2018-08-23T16:02:15.910Z,96359.05
2018-08-23T16:05:40.674Z,96364.92
2018-08-23T16:09:09.129Z,96363.15
2018-08-23T16:12:33.763Z,96359.75
2018-08-23T16:16:03.734Z,96349.09
2018-08-23T16:19:33.624Z,96350.41
2018-08-23T16:22:58.411Z,96346.52
2018-08-23T16:26:23.024Z,96341.47
2018-08-23T16:29:50.398Z,96337.66
2018-08-23T16:33:15.057Z,96327.86
2018-08-23T16:36:39.714Z,96325.61
2018-08-23T16:40:04.516Z,96324.02
2018-08-23T16:43:29.249Z,96323.08
2018-08-23T16:46:53.897Z,96321.06
2018-08-23T16:50:18.506Z,96316.06
2018-08-23T16:53:43.712Z,96321.69
2018-08-23T16:57:08.383Z,96318.91
2018-08-23T17:00:33.104Z,96320.05
2018-08-23T17:03:58.313Z,96324.45
2018-08-23T17:07:22.976Z,96330.52
2018-08-23T17:10:47.668Z,96339.30
2018-08-23T17:14:14.751Z,96341.78
2018-08-23T17:17:39.418Z,96338.73
2018-08-23T17:21:04.141Z,96341.28
2018-08-23T17:24:28.880Z,96343.44
2018-08-23T17:27:53.543Z,96343.42
2018-08-23T17:31:18.192Z,96333.27
2018-08-23T17:34:42.845Z,96338.84
2018-08-23T17:38:07.558Z,96331.59
2018-08-23T17:41:32.231Z,96338.23
2018-08-23T17:44:56.837Z,96336.87
2018-08-23T17:48:21.821Z,96346.59
2018-08-23T17:51:46.644Z,96347.09
2018-08-23T17:55:11.313Z,96343.89
2018-08-23T17:58:36.212Z,96338.11
2018-08-23T18:02:00.879Z,96341.16
2018-08-23T18:05:25.621Z,96338.36
2018-08-23T18:08:50.327Z,96334.64
2018-08-23T18:12:15.050Z,96350.63
2018-08-23T18:15:45.316Z,96339.38
2018-08-23T18:19:10.239Z,96337.08
2018-08-23T18:22:35.418Z,96339.80
2018-08-23T18:26:00.274Z,96341.02
2018-08-23T18:29:24.887Z,96335.70
2018-08-23T18:32:49.559Z,96336.39
2018-08-23T18:36:14.393Z,96339.41
2018-08-23T18:39:39.186Z,96336.95
2018-08-23T18:44:33.703Z,96328.64
2018-08-23T18:47:58.513Z,96328.87
2018-08-23T18:51:23.287Z,96327.30
2018-08-23T18:54:47.993Z,96329.81
2018-08-23T18:58:12.919Z,96341.14
2018-08-23T19:01:37.685Z,96338.56
2018-08-23T19:05:02.647Z,96337.02
2018-08-23T19:08:27.521Z,96342.20
2018-08-23T19:11:52.366Z,96341.92
2018-08-23T19:15:21.404Z,96339.25
2018-08-23T19:18:46.141Z,96343.97
2018-08-23T19:22:10.914Z,96348.88
2018-08-23T19:25:35.758Z,96351.25
2018-08-23T19:29:00.579Z,96351.83
2018-08-23T19:32:25.351Z,96361.02
2018-08-23T19:35:50.195Z,96373.22
2018-08-23T19:39:14.931Z,96365.72
2018-08-23T19:42:39.837Z,96366.98
2018-08-23T19:46:09.987Z,96370.12
2018-08-23T19:49:40.230Z,96376.90
2018-08-23T19:53:04.927Z,96376.49
2018-08-23T19:56:29.570Z,96378.58
2018-08-23T19:59:54.413Z,96385.58
2018-08-23T20:03:19.090Z,96390.91
2018-08-23T20:06:43.823Z,96403.23
2018-08-23T20:10:08.637Z,96408.03
2018-08-23T20:13:33.523Z,96411.22
2018-08-23T20:16:58.219Z,96393.16
2018-08-23T20:20:22.900Z,96399.55
2018-08-23T20:23:47.584Z,96426.73
2018-08-23T20:27:12.265Z,96448.48
2018-08-23T20:30:36.903Z,96486.84
2018-08-23T20:34:01.577Z,96526.34
2018-08-23T20:37:26.389Z,96559.45
2018-08-23T20:40:51.034Z,96649.22
2018-08-23T20:44:15.707Z,96689.98
2018-08-23T20:47:40.393Z,96650.69
2018-08-23T20:51:05.074Z,96637.05
2018-08-23T20:54:29.735Z,96597.02
2018-08-23T20:57:54.404Z,96617.11
2018-08-23T21:01:19.050Z,96617.52
2018-08-23T21:04:44.449Z,96629.52
2018-08-23T21:08:09.145Z,96631.38
2018-08-23T21:11:33.797Z,96616.95
2018-08-23T21:14:58.498Z,96608.75
2018-08-23T21:18:23.177Z,96611.51
2018-08-23T21:21:47.823Z,96613.53
2018-08-23T21:25:12.541Z,96614.53
2018-08-23T21:28:37.218Z,96619.43
2018-08-23T21:32:01.898Z,96603.78
2018-08-23T21:35:26.645Z,96566.95
2018-08-23T21:38:51.534Z,96550.59
2018-08-23T21:42:16.199Z,96559.04
2018-08-23T21:45:40.872Z,96546.72
2018-08-23T21:49:05.552Z,96541.91
2018-08-23T21:52:30.199Z,96559.45
2018-08-23T21:55:54.908Z,96561.41
2018-08-23T21:59:19.558Z,96556.84
2018-08-23T22:02:44.215Z,96543.97
2018-08-23T22:06:08.856Z,96526.94
2018-08-23T22:09:33.636Z,96533.23
2018-08-23T22:12:58.244Z,96534.31
2018-08-23T22:16:22.945Z,96521.88
2018-08-23T22:19:47.663Z,96534.94
2018-08-23T22:23:12.523Z,96542.63
2018-08-23T22:26:37.222Z,96541.86
2018-08-23T22:30:02.143Z,96534.92
2018-08-23T22:33:26.797Z,96541.33
2018-08-23T22:36:51.407Z,96532.23
2018-08-23T22:40:16.029Z,96526.01
2018-08-23T22:43:40.719Z,96528.84
2018-08-23T22:47:05.364Z,96527.86
2018-08-23T22:50:30.095Z,96522.64
2018-08-23T22:53:54.911Z,96524.63
2018-08-23T22:57:19.757Z,96513.56
2018-08-23T23:00:44.405Z,96512.90
2018-08-23T23:04:14.232Z,96519.92
2018-08-23T23:07:39.095Z,96517.13
2018-08-23T23:11:03.701Z,96534.04
2018-08-23T23:14:28.418Z,96563.72
2018-08-23T23:17:53.034Z,96601.59
2018-08-23T23:21:17.668Z,96661.73
2018-08-23T23:24:47.668Z,96651.39
2018-08-23T23:28:12.352Z,96615.20
2018-08-23T23:31:36.998Z,96575.03
2018-08-23T23:35:01.657Z,96585.96
2018-08-23T23:38:26.267Z,96584.64
2018-08-23T23:41:50.874Z,96586.58
2018-08-23T23:45:15.538Z,96589.39
2018-08-23T23:48:40.178Z,96572.36
2018-08-23T23:52:04.841Z,96567.80
2018-08-23T23:55:29.506Z,96571.70
2018-08-23T23:58:54.142Z,96562.03
